sensor_id;sensor_type;location;lat;lon;timestamp;temperature;humidity
42187;DHT22;27858;51.414;0.018;2023-06-05T00:00:10;12.80;99.90
42187;DHT22;27858;51.414;0.018;2023-06-05T04:00:06;12.30;99.90
42187;DHT22;27858;51.414;0.018;2023-06-05T04:02:37;12.30;99.90
42187;DHT22;27858;51.414;0.018;2023-06-05T04:05:04;12.30;99.90
42187;DHT22;27858;51.414;0.018;2023-06-05T04:07:31;12.20;99.90
42187;DHT22;27858;51.414;0.018;2023-06-05T04:10:00;12.30;99.90
42187;DHT22;27858;51.414;0.018;2023-06-05T04:12:27;12.30;99.90
42187;DHT22;27858;51.414;0.018;2023-06-05T04:14:54;12.30;99.90
42187;DHT22;27858;51.414;0.018;2023-06-05T04:17:20;12.30;99.90
42187;DHT22;27858;51.414;0.018;2023-06-05T04:19:47;12.30;99.90
42187;DHT22;27858;51.414;0.018;2023-06-05T04:22:15;12.30;99.90
42187;DHT22;27858;51.414;0.018;2023-06-05T04:24:47;12.30;99.90
42187;DHT22;27858;51.414;0.018;2023-06-05T04:27:14;12.40;99.90
42187;DHT22;27858;51.414;0.018;2023-06-05T04:29:41;12.40;99.90
42187;DHT22;27858;51.414;0.018;2023-06-05T04:32:08;12.40;99.90
42187;DHT22;27858;51.414;0.018;2023-06-05T04:34:35;12.40;99.90
42187;DHT22;27858;51.414;0.018;2023-06-05T04:37:01;12.40;99.90
42187;DHT22;27858;51.414;0.018;2023-06-05T04:39:30;12.40;99.90
42187;DHT22;27858;51.414;0.018;2023-06-05T04:41:56;12.40;99.90
42187;DHT22;27858;51.414;0.018;2023-06-05T04:44:28;12.40;99.90
42187;DHT22;27858;51.414;0.018;2023-06-05T04:46:55;12.50;99.90
42187;DHT22;27858;51.414;0.018;2023-06-05T04:49:22;12.50;99.90
42187;DHT22;27858;51.414;0.018;2023-06-05T04:51:52;12.50;99.90
42187;DHT22;27858;51.414;0.018;2023-06-05T04:54:19;12.50;99.90
42187;DHT22;27858;51.414;0.018;2023-06-05T04:56:46;12.60;99.90
42187;DHT22;27858;51.414;0.018;2023-06-05T04:59:16;12.50;99.90
42187;DHT22;27858;51.414;0.018;2023-06-05T05:01:43;12.60;99.90
42187;DHT22;27858;51.414;0.018;2023-06-05T05:04:10;12.60;99.90
42187;DHT22;27858;51.414;0.018;2023-06-05T05:06:38;12.60;99.90
42187;DHT22;27858;51.414;0.018;2023-06-05T05:09:06;12.70;99.90
42187;DHT22;27858;51.414;0.018;2023-06-05T05:11:35;12.70;99.90
42187;DHT22;27858;51.414;0.018;2023-06-05T05:14:02;12.70;99.90
42187;DHT22;27858;51.414;0.018;2023-06-05T05:16:29;12.70;99.90
42187;DHT22;27858;51.414;0.018;2023-06-05T05:18:56;12.70;99.90
42187;DHT22;27858;51.414;0.018;2023-06-05T05:21:23;12.70;99.90
42187;DHT22;27858;51.414;0.018;2023-06-05T05:23:50;12.80;99.90
42187;DHT22;27858;51.414;0.018;2023-06-05T05:26:17;12.80;99.90
42187;DHT22;27858;51.414;0.018;2023-06-05T05:28:44;12.80;99.90
42187;DHT22;27858;51.414;0.018;2023-06-05T05:31:11;12.80;99.90
42187;DHT22;27858;51.414;0.018;2023-06-05T05:33:38;12.80;99.90
42187;DHT22;27858;51.414;0.018;2023-06-05T05:36:04;12.90;99.90
42187;DHT22;27858;51.414;0.018;2023-06-05T05:38:31;12.90;99.90
42187;DHT22;27858;51.414;0.018;2023-06-05T05:40:58;12.90;99.90
42187;DHT22;27858;51.414;0.018;2023-06-05T05:43:25;12.90;99.90
42187;DHT22;27858;51.414;0.018;2023-06-05T05:45:52;12.90;99.90
42187;DHT22;27858;51.414;0.018;2023-06-05T05:48:19;12.90;99.90
42187;DHT22;27858;51.414;0.018;2023-06-05T05:50:46;12.90;99.90
42187;DHT22;27858;51.414;0.018;2023-06-05T05:53:12;12.90;99.90
42187;DHT22;27858;51.414;0.018;2023-06-05T05:55:39;12.90;99.90
42187;DHT22;27858;51.414;0.018;2023-06-05T05:58:06;12.90;91.80
42187;DHT22;27858;51.414;0.018;2023-06-05T06:00:33;13.00;99.90
42187;DHT22;27858;51.414;0.018;2023-06-05T06:03:01;13.00;92.50
42187;DHT22;27858;51.414;0.018;2023-06-05T06:05:28;13.10;96.80
42187;DHT22;27858;51.414;0.018;2023-06-05T06:07:56;13.10;87.00
42187;DHT22;27858;51.414;0.018;2023-06-05T06:10:23;13.10;92.30
42187;DHT22;27858;51.414;0.018;2023-06-05T06:12:50;13.10;88.30
42187;DHT22;27858;51.414;0.018;2023-06-05T06:15:17;13.10;88.90
42187;DHT22;27858;51.414;0.018;2023-06-05T06:17:44;13.10;83.70
42187;DHT22;27858;51.414;0.018;2023-06-05T06:20:11;13.10;91.00
42187;DHT22;27858;51.414;0.018;2023-06-05T06:22:40;13.10;83.40
42187;DHT22;27858;51.414;0.018;2023-06-05T06:25:09;13.10;95.00
42187;DHT22;27858;51.414;0.018;2023-06-05T06:27:37;13.20;99.90
42187;DHT22;27858;51.414;0.018;2023-06-05T06:30:04;13.10;98.40
42187;DHT22;27858;51.414;0.018;2023-06-05T06:32:31;13.10;93.80
42187;DHT22;27858;51.414;0.018;2023-06-05T06:34:58;13.20;95.20
42187;DHT22;27858;51.414;0.018;2023-06-05T06:37:26;13.20;96.10
42187;DHT22;27858;51.414;0.018;2023-06-05T06:39:53;13.20;97.00
42187;DHT22;27858;51.414;0.018;2023-06-05T06:42:20;13.20;97.70
42187;DHT22;27858;51.414;0.018;2023-06-05T06:44:47;13.30;99.90
42187;DHT22;27858;51.414;0.018;2023-06-05T06:47:13;13.20;97.00
42187;DHT22;27858;51.414;0.018;2023-06-05T06:49:40;13.20;97.70
42187;DHT22;27858;51.414;0.018;2023-06-05T06:52:07;13.30;99.90
42187;DHT22;27858;51.414;0.018;2023-06-05T06:54:34;13.30;99.90
42187;DHT22;27858;51.414;0.018;2023-06-05T06:57:01;13.40;95.20
42187;DHT22;27858;51.414;0.018;2023-06-05T06:59:28;13.30;93.00
42187;DHT22;27858;51.414;0.018;2023-06-05T07:02:16;13.30;97.60
42187;DHT22;27858;51.414;0.018;2023-06-05T07:04:44;13.40;93.00
42187;DHT22;27858;51.414;0.018;2023-06-05T07:07:12;13.40;91.70
42187;DHT22;27858;51.414;0.018;2023-06-05T07:09:42;13.40;93.10
42187;DHT22;27858;51.414;0.018;2023-06-05T07:12:14;13.40;74.30
42187;DHT22;27858;51.414;0.018;2023-06-05T07:14:41;13.40;91.10
42187;DHT22;27858;51.414;0.018;2023-06-05T07:17:09;13.50;92.40
42187;DHT22;27858;51.414;0.018;2023-06-05T07:19:35;13.50;96.10
42187;DHT22;27858;51.414;0.018;2023-06-05T07:22:06;13.60;99.50
42187;DHT22;27858;51.414;0.018;2023-06-05T07:24:34;13.60;91.40
42187;DHT22;27858;51.414;0.018;2023-06-05T07:27:08;13.60;97.70
42187;DHT22;27858;51.414;0.018;2023-06-05T07:29:35;13.70;94.90
42187;DHT22;27858;51.414;0.018;2023-06-05T07:32:02;13.70;89.60
42187;DHT22;27858;51.414;0.018;2023-06-05T07:34:33;13.60;83.30
42187;DHT22;27858;51.414;0.018;2023-06-05T07:37:01;13.60;73.30
42187;DHT22;27858;51.414;0.018;2023-06-05T07:39:28;13.60;87.70
42187;DHT22;27858;51.414;0.018;2023-06-05T07:41:55;13.70;90.10
42187;DHT22;27858;51.414;0.018;2023-06-05T07:44:22;13.80;81.70
42187;DHT22;27858;51.414;0.018;2023-06-05T07:46:50;13.80;89.40
42187;DHT22;27858;51.414;0.018;2023-06-05T07:49:17;13.80;87.70
42187;DHT22;27858;51.414;0.018;2023-06-05T07:51:45;13.80;84.10
42187;DHT22;27858;51.414;0.018;2023-06-05T07:54:14;13.90;63.50
42187;DHT22;27858;51.414;0.018;2023-06-05T07:56:46;13.80;87.40
42187;DHT22;27858;51.414;0.018;2023-06-05T07:59:15;13.90;91.00
42187;DHT22;27858;51.414;0.018;2023-06-05T08:01:43;13.90;82.60
42187;DHT22;27858;51.414;0.018;2023-06-05T08:04:12;13.90;85.50
42187;DHT22;27858;51.414;0.018;2023-06-05T08:06:39;13.90;76.00
42187;DHT22;27858;51.414;0.018;2023-06-05T08:09:07;14.00;84.60
42187;DHT22;27858;51.414;0.018;2023-06-05T08:11:36;14.10;77.00
42187;DHT22;27858;51.414;0.018;2023-06-05T08:14:05;14.10;75.70
42187;DHT22;27858;51.414;0.018;2023-06-05T08:16:33;14.00;69.80
42187;DHT22;27858;51.414;0.018;2023-06-05T08:19:00;14.10;72.70
42187;DHT22;27858;51.414;0.018;2023-06-05T08:21:27;14.10;67.00
42187;DHT22;27858;51.414;0.018;2023-06-05T08:23:54;14.10;60.20
42187;DHT22;27858;51.414;0.018;2023-06-05T08:26:21;14.10;71.30
42187;DHT22;27858;51.414;0.018;2023-06-05T08:28:49;14.20;62.80
42187;DHT22;27858;51.414;0.018;2023-06-05T08:31:16;14.30;67.60
42187;DHT22;27858;51.414;0.018;2023-06-05T08:33:43;14.20;51.50
42187;DHT22;27858;51.414;0.018;2023-06-05T08:36:10;14.30;54.20
42187;DHT22;27858;51.414;0.018;2023-06-05T08:38:37;14.30;59.50
42187;DHT22;27858;51.414;0.018;2023-06-05T08:41:07;14.20;74.20
42187;DHT22;27858;51.414;0.018;2023-06-05T08:43:37;14.30;70.90
42187;DHT22;27858;51.414;0.018;2023-06-05T08:46:06;14.30;69.50
42187;DHT22;27858;51.414;0.018;2023-06-05T08:48:37;14.30;73.00
42187;DHT22;27858;51.414;0.018;2023-06-05T08:51:07;14.40;59.20
42187;DHT22;27858;51.414;0.018;2023-06-05T08:53:39;14.40;53.50
42187;DHT22;27858;51.414;0.018;2023-06-05T08:56:07;14.50;49.20
42187;DHT22;27858;51.414;0.018;2023-06-05T08:58:36;14.50;52.70
42187;DHT22;27858;51.414;0.018;2023-06-05T09:01:03;14.60;52.50
42187;DHT22;27858;51.414;0.018;2023-06-05T09:03:32;14.60;45.00
42187;DHT22;27858;51.414;0.018;2023-06-05T09:06:00;14.60;38.30
42187;DHT22;27858;51.414;0.018;2023-06-05T09:08:30;14.70;45.70
42187;DHT22;27858;51.414;0.018;2023-06-05T09:11:23;14.60;41.20
42187;DHT22;27858;51.414;0.018;2023-06-05T09:13:50;14.70;49.50
42187;DHT22;27858;51.414;0.018;2023-06-05T09:16:22;14.70;49.20
42187;DHT22;27858;51.414;0.018;2023-06-05T09:21:20;14.80;49.20
42187;DHT22;27858;51.414;0.018;2023-06-05T09:23:47;14.80;44.20
42187;DHT22;27858;51.414;0.018;2023-06-05T09:26:14;14.80;46.00
42187;DHT22;27858;51.414;0.018;2023-06-05T09:28:53;14.80;49.90
42187;DHT22;27858;51.414;0.018;2023-06-05T09:31:20;14.80;33.90
42187;DHT22;27858;51.414;0.018;2023-06-05T09:33:57;14.80;30.90
42187;DHT22;27858;51.414;0.018;2023-06-05T09:36:24;14.90;39.40
42187;DHT22;27858;51.414;0.018;2023-06-05T09:38:52;14.90;40.10
42187;DHT22;27858;51.414;0.018;2023-06-05T09:41:19;15.00;29.60
42187;DHT22;27858;51.414;0.018;2023-06-05T09:43:46;15.10;33.10
42187;DHT22;27858;51.414;0.018;2023-06-05T09:46:17;15.10;34.20
42187;DHT22;27858;51.414;0.018;2023-06-05T09:48:52;15.20;27.60
42187;DHT22;27858;51.414;0.018;2023-06-05T09:51:23;15.30;25.70
42187;DHT22;27858;51.414;0.018;2023-06-05T09:53:50;15.40;21.10
42187;DHT22;27858;51.414;0.018;2023-06-05T09:56:20;15.50;13.40
42187;DHT22;27858;51.414;0.018;2023-06-05T09:58:51;15.70;6.60
42187;DHT22;27858;51.414;0.018;2023-06-05T10:01:21;15.80;1.00
42187;DHT22;27858;51.414;0.018;2023-06-05T10:04:00;16.00;1.00
42187;DHT22;27858;51.414;0.018;2023-06-05T10:06:28;16.20;1.00
42187;DHT22;27858;51.414;0.018;2023-06-05T10:08:56;16.20;1.00
42187;DHT22;27858;51.414;0.018;2023-06-05T10:11:26;16.40;1.00
42187;DHT22;27858;51.414;0.018;2023-06-05T10:13:54;16.60;1.00
42187;DHT22;27858;51.414;0.018;2023-06-05T10:16:21;16.60;1.00
42187;DHT22;27858;51.414;0.018;2023-06-05T10:18:54;16.70;1.00
42187;DHT22;27858;51.414;0.018;2023-06-05T10:21:23;16.60;1.00
42187;DHT22;27858;51.414;0.018;2023-06-05T10:35:05;17.20;1.00
42187;DHT22;27858;51.414;0.018;2023-06-05T10:40:33;17.30;1.00
42187;DHT22;27858;51.414;0.018;2023-06-05T10:43:25;17.30;1.00
42187;DHT22;27858;51.414;0.018;2023-06-05T10:45:53;17.50;1.00
42187;DHT22;27858;51.414;0.018;2023-06-05T10:49:05;17.50;1.00
42187;DHT22;27858;51.414;0.018;2023-06-05T10:51:48;17.60;1.00
42187;DHT22;27858;51.414;0.018;2023-06-05T10:59:20;17.60;1.00
42187;DHT22;27858;51.414;0.018;2023-06-05T11:07:22;17.70;1.00
42187;DHT22;27858;51.414;0.018;2023-06-05T11:15:02;17.70;1.00
42187;DHT22;27858;51.414;0.018;2023-06-05T11:17:37;17.80;1.00
42187;DHT22;27858;51.414;0.018;2023-06-05T11:20:06;17.80;1.00
42187;DHT22;27858;51.414;0.018;2023-06-05T11:25:28;18.10;99.90
42187;DHT22;27858;51.414;0.018;2023-06-05T11:28:05;18.20;99.90
42187;DHT22;27858;51.414;0.018;2023-06-05T11:30:39;18.10;99.90
42187;DHT22;27858;51.414;0.018;2023-06-05T11:33:17;18.20;99.90
42187;DHT22;27858;51.414;0.018;2023-06-05T11:35:47;18.20;99.90
42187;DHT22;27858;51.414;0.018;2023-06-05T11:38:21;18.30;99.90
42187;DHT22;27858;51.414;0.018;2023-06-05T11:40:51;18.20;99.90
42187;DHT22;27858;51.414;0.018;2023-06-05T11:43:18;18.30;99.90
42187;DHT22;27858;51.414;0.018;2023-06-05T11:45:53;18.40;99.90
42187;DHT22;27858;51.414;0.018;2023-06-05T11:48:21;18.30;99.90
42187;DHT22;27858;51.414;0.018;2023-06-05T11:51:03;18.40;99.90
42187;DHT22;27858;51.414;0.018;2023-06-05T11:53:32;18.40;99.90
42187;DHT22;27858;51.414;0.018;2023-06-05T11:56:00;18.50;99.90
42187;DHT22;27858;51.414;0.018;2023-06-05T11:58:33;18.50;99.90
42187;DHT22;27858;51.414;0.018;2023-06-05T12:03:36;18.60;99.90
42187;DHT22;27858;51.414;0.018;2023-06-05T12:06:04;18.50;99.90
42187;DHT22;27858;51.414;0.018;2023-06-05T12:08:32;18.50;99.90
42187;DHT22;27858;51.414;0.018;2023-06-05T12:11:01;18.50;99.90
42187;DHT22;27858;51.414;0.018;2023-06-05T12:14:09;18.70;99.90
42187;DHT22;27858;51.414;0.018;2023-06-05T12:16:41;18.80;99.90
42187;DHT22;27858;51.414;0.018;2023-06-05T12:19:16;18.90;99.90
42187;DHT22;27858;51.414;0.018;2023-06-05T12:21:47;19.00;99.90
42187;DHT22;27858;51.414;0.018;2023-06-05T12:24:14;19.00;99.90
42187;DHT22;27858;51.414;0.018;2023-06-05T12:29:22;19.30;99.90
42187;DHT22;27858;51.414;0.018;2023-06-05T12:31:50;19.40;99.90
42187;DHT22;27858;51.414;0.018;2023-06-05T12:34:18;19.40;99.90
42187;DHT22;27858;51.414;0.018;2023-06-05T12:36:45;19.50;99.90
42187;DHT22;27858;51.414;0.018;2023-06-05T12:39:14;19.60;99.90
42187;DHT22;27858;51.414;0.018;2023-06-05T12:41:42;19.90;99.90
42187;DHT22;27858;51.414;0.018;2023-06-05T12:44:12;19.90;99.90
42187;DHT22;27858;51.414;0.018;2023-06-05T12:46:39;19.90;99.90
42187;DHT22;27858;51.414;0.018;2023-06-05T12:49:07;19.80;99.90
42187;DHT22;27858;51.414;0.018;2023-06-05T12:51:34;19.80;99.90
42187;DHT22;27858;51.414;0.018;2023-06-05T12:54:01;19.90;99.90
42187;DHT22;27858;51.414;0.018;2023-06-05T12:56:29;20.00;99.90
42187;DHT22;27858;51.414;0.018;2023-06-05T12:58:58;20.00;99.90
42187;DHT22;27858;51.414;0.018;2023-06-05T13:01:25;20.00;99.90
42187;DHT22;27858;51.414;0.018;2023-06-05T13:03:53;19.90;99.90
42187;DHT22;27858;51.414;0.018;2023-06-05T13:06:25;19.80;99.90
42187;DHT22;27858;51.414;0.018;2023-06-05T13:08:52;19.70;99.90
42187;DHT22;27858;51.414;0.018;2023-06-05T13:11:18;19.70;99.90
42187;DHT22;27858;51.414;0.018;2023-06-05T13:13:45;20.10;99.90
42187;DHT22;27858;51.414;0.018;2023-06-05T13:16:12;20.40;99.90
42187;DHT22;27858;51.414;0.018;2023-06-05T13:18:39;20.70;99.90
42187;DHT22;27858;51.414;0.018;2023-06-05T13:21:06;21.00;99.90
42187;DHT22;27858;51.414;0.018;2023-06-05T13:23:33;21.30;99.90
42187;DHT22;27858;51.414;0.018;2023-06-05T13:26:00;21.60;99.90
42187;DHT22;27858;51.414;0.018;2023-06-05T13:28:28;21.80;99.90
42187;DHT22;27858;51.414;0.018;2023-06-05T13:30:54;22.20;99.90
42187;DHT22;27858;51.414;0.018;2023-06-05T13:33:22;22.40;99.90
42187;DHT22;27858;51.414;0.018;2023-06-05T13:35:51;22.60;99.90
42187;DHT22;27858;51.414;0.018;2023-06-05T13:38:20;23.10;99.90
42187;DHT22;27858;51.414;0.018;2023-06-05T13:40:49;23.40;99.90
42187;DHT22;27858;51.414;0.018;2023-06-05T13:43:18;22.80;99.90
42187;DHT22;27858;51.414;0.018;2023-06-05T13:45:46;23.30;99.90
42187;DHT22;27858;51.414;0.018;2023-06-05T13:48:13;23.30;99.90
42187;DHT22;27858;51.414;0.018;2023-06-05T13:50:40;22.90;99.90
42187;DHT22;27858;51.414;0.018;2023-06-05T13:53:07;23.00;99.90
42187;DHT22;27858;51.414;0.018;2023-06-05T13:55:34;23.50;99.90
42187;DHT22;27858;51.414;0.018;2023-06-05T13:58:01;23.40;99.90
42187;DHT22;27858;51.414;0.018;2023-06-05T14:00:29;23.60;99.90
42187;DHT22;27858;51.414;0.018;2023-06-05T14:02:57;23.20;99.90
42187;DHT22;27858;51.414;0.018;2023-06-05T14:05:24;23.30;99.90
42187;DHT22;27858;51.414;0.018;2023-06-05T14:07:52;23.60;99.90
42187;DHT22;27858;51.414;0.018;2023-06-05T14:10:21;23.80;99.90
42187;DHT22;27858;51.414;0.018;2023-06-05T14:12:48;24.10;99.90
42187;DHT22;27858;51.414;0.018;2023-06-05T14:15:16;24.10;99.90
42187;DHT22;27858;51.414;0.018;2023-06-05T14:17:49;24.40;99.90
42187;DHT22;27858;51.414;0.018;2023-06-05T14:20:17;24.40;99.90
42187;DHT22;27858;51.414;0.018;2023-06-05T14:22:44;24.20;99.90
42187;DHT22;27858;51.414;0.018;2023-06-05T14:25:11;24.00;99.90
42187;DHT22;27858;51.414;0.018;2023-06-05T14:27:38;24.30;99.90
42187;DHT22;27858;51.414;0.018;2023-06-05T14:30:05;24.30;99.90
42187;DHT22;27858;51.414;0.018;2023-06-05T14:32:33;24.60;99.90
42187;DHT22;27858;51.414;0.018;2023-06-05T14:35:00;24.70;99.90
42187;DHT22;27858;51.414;0.018;2023-06-05T14:37:27;24.70;99.90
42187;DHT22;27858;51.414;0.018;2023-06-05T14:39:54;25.10;99.90
42187;DHT22;27858;51.414;0.018;2023-06-05T14:42:22;25.50;99.90
42187;DHT22;27858;51.414;0.018;2023-06-05T14:44:50;25.50;99.90
42187;DHT22;27858;51.414;0.018;2023-06-05T14:47:17;25.90;99.90
42187;DHT22;27858;51.414;0.018;2023-06-05T14:49:43;25.90;99.90
42187;DHT22;27858;51.414;0.018;2023-06-05T14:52:10;26.20;99.90
42187;DHT22;27858;51.414;0.018;2023-06-05T14:54:37;26.60;99.90
42187;DHT22;27858;51.414;0.018;2023-06-05T14:57:05;26.20;99.90
42187;DHT22;27858;51.414;0.018;2023-06-05T14:59:33;26.00;99.90
42187;DHT22;27858;51.414;0.018;2023-06-05T15:01:59;26.10;99.90
42187;DHT22;27858;51.414;0.018;2023-06-05T15:04:26;26.40;99.90
42187;DHT22;27858;51.414;0.018;2023-06-05T15:06:54;26.90;99.90
42187;DHT22;27858;51.414;0.018;2023-06-05T15:09:21;26.60;99.90
42187;DHT22;27858;51.414;0.018;2023-06-05T15:11:49;27.10;99.90
42187;DHT22;27858;51.414;0.018;2023-06-05T15:14:22;26.30;99.90
42187;DHT22;27858;51.414;0.018;2023-06-05T15:16:50;26.50;99.90
42187;DHT22;27858;51.414;0.018;2023-06-05T15:19:17;26.30;99.90
42187;DHT22;27858;51.414;0.018;2023-06-05T15:21:44;26.70;99.90
42187;DHT22;27858;51.414;0.018;2023-06-05T15:24:11;26.50;99.90
42187;DHT22;27858;51.414;0.018;2023-06-05T15:26:38;27.20;99.90
42187;DHT22;27858;51.414;0.018;2023-06-05T15:29:05;26.70;99.90
42187;DHT22;27858;51.414;0.018;2023-06-05T15:31:31;27.10;99.90
42187;DHT22;27858;51.414;0.018;2023-06-05T15:33:58;27.10;99.90
42187;DHT22;27858;51.414;0.018;2023-06-05T15:36:26;27.20;99.90
42187;DHT22;27858;51.414;0.018;2023-06-05T15:38:53;26.80;99.90
42187;DHT22;27858;51.414;0.018;2023-06-05T15:41:22;26.70;99.90
42187;DHT22;27858;51.414;0.018;2023-06-05T15:43:49;26.40;99.90
42187;DHT22;27858;51.414;0.018;2023-06-05T15:46:16;26.20;99.90
42187;DHT22;27858;51.414;0.018;2023-06-05T15:48:43;26.30;99.90
42187;DHT22;27858;51.414;0.018;2023-06-05T15:51:10;26.50;99.90
42187;DHT22;27858;51.414;0.018;2023-06-05T15:53:37;27.10;99.90
42187;DHT22;27858;51.414;0.018;2023-06-05T15:56:20;27.20;99.90
42187;DHT22;27858;51.414;0.018;2023-06-05T15:58:47;26.40;99.90
42187;DHT22;27858;51.414;0.018;2023-06-05T16:01:15;26.20;99.90
42187;DHT22;27858;51.414;0.018;2023-06-05T16:03:42;26.60;99.90
42187;DHT22;27858;51.414;0.018;2023-06-05T16:06:09;27.30;99.90
42187;DHT22;27858;51.414;0.018;2023-06-05T16:08:40;27.10;99.90
42187;DHT22;27858;51.414;0.018;2023-06-05T16:11:07;27.60;99.90
42187;DHT22;27858;51.414;0.018;2023-06-05T16:13:38;27.80;99.90
42187;DHT22;27858;51.414;0.018;2023-06-05T16:16:06;28.20;99.90
42187;DHT22;27858;51.414;0.018;2023-06-05T16:18:33;27.60;99.90
42187;DHT22;27858;51.414;0.018;2023-06-05T16:20:59;27.50;99.90
42187;DHT22;27858;51.414;0.018;2023-06-05T16:23:26;27.80;99.90
42187;DHT22;27858;51.414;0.018;2023-06-05T16:25:53;27.90;99.90
42187;DHT22;27858;51.414;0.018;2023-06-05T16:28:20;28.10;99.90
42187;DHT22;27858;51.414;0.018;2023-06-05T16:30:47;28.20;99.90
42187;DHT22;27858;51.414;0.018;2023-06-05T16:33:14;28.40;99.90
42187;DHT22;27858;51.414;0.018;2023-06-05T16:35:40;28.40;99.90
42187;DHT22;27858;51.414;0.018;2023-06-05T16:38:07;28.70;99.90
42187;DHT22;27858;51.414;0.018;2023-06-05T16:40:34;28.40;99.90
42187;DHT22;27858;51.414;0.018;2023-06-05T16:43:03;28.60;99.90
42187;DHT22;27858;51.414;0.018;2023-06-05T16:45:30;28.70;99.90
42187;DHT22;27858;51.414;0.018;2023-06-05T16:48:00;28.90;99.90
42187;DHT22;27858;51.414;0.018;2023-06-05T16:50:27;28.80;99.90
42187;DHT22;27858;51.414;0.018;2023-06-05T16:52:54;28.60;99.90
42187;DHT22;27858;51.414;0.018;2023-06-05T16:55:23;28.90;99.90
42187;DHT22;27858;51.414;0.018;2023-06-05T16:57:50;28.90;99.90
42187;DHT22;27858;51.414;0.018;2023-06-05T17:00:17;29.20;99.90
42187;DHT22;27858;51.414;0.018;2023-06-05T17:02:45;29.20;99.90
42187;DHT22;27858;51.414;0.018;2023-06-05T17:05:12;29.10;99.90
42187;DHT22;27858;51.414;0.018;2023-06-05T17:07:39;29.00;99.90
42187;DHT22;27858;51.414;0.018;2023-06-05T17:10:07;29.00;99.90
42187;DHT22;27858;51.414;0.018;2023-06-05T17:12:33;28.90;99.90
42187;DHT22;27858;51.414;0.018;2023-06-05T17:15:00;29.10;99.90
42187;DHT22;27858;51.414;0.018;2023-06-05T17:17:27;28.20;99.90
42187;DHT22;27858;51.414;0.018;2023-06-05T17:19:54;27.90;99.90
42187;DHT22;27858;51.414;0.018;2023-06-05T17:22:21;27.90;99.90
42187;DHT22;27858;51.414;0.018;2023-06-05T17:24:48;28.10;99.90
42187;DHT22;27858;51.414;0.018;2023-06-05T17:27:15;28.20;99.90
42187;DHT22;27858;51.414;0.018;2023-06-05T17:29:42;28.20;99.90
42187;DHT22;27858;51.414;0.018;2023-06-05T17:32:09;28.50;99.90
42187;DHT22;27858;51.414;0.018;2023-06-05T17:34:37;28.40;99.90
42187;DHT22;27858;51.414;0.018;2023-06-05T17:37:04;28.70;99.90
42187;DHT22;27858;51.414;0.018;2023-06-05T17:39:31;28.70;99.90
42187;DHT22;27858;51.414;0.018;2023-06-05T17:41:57;28.50;99.90
42187;DHT22;27858;51.414;0.018;2023-06-05T17:44:24;28.30;99.90
42187;DHT22;27858;51.414;0.018;2023-06-05T17:46:51;27.70;99.90
42187;DHT22;27858;51.414;0.018;2023-06-05T17:49:18;27.20;99.90
42187;DHT22;27858;51.414;0.018;2023-06-05T17:51:45;27.10;99.90
42187;DHT22;27858;51.414;0.018;2023-06-05T17:54:13;26.70;99.90
42187;DHT22;27858;51.414;0.018;2023-06-05T17:56:41;26.30;99.90
42187;DHT22;27858;51.414;0.018;2023-06-05T17:59:07;25.80;99.90
42187;DHT22;27858;51.414;0.018;2023-06-05T18:01:34;25.30;99.90
42187;DHT22;27858;51.414;0.018;2023-06-05T18:04:02;24.90;99.90
42187;DHT22;27858;51.414;0.018;2023-06-05T18:06:29;24.40;99.90
42187;DHT22;27858;51.414;0.018;2023-06-05T18:08:55;23.90;99.90
42187;DHT22;27858;51.414;0.018;2023-06-05T18:11:26;23.70;99.90
42187;DHT22;27858;51.414;0.018;2023-06-05T18:13:53;23.30;99.90
42187;DHT22;27858;51.414;0.018;2023-06-05T18:16:20;23.00;99.90
42187;DHT22;27858;51.414;0.018;2023-06-05T18:18:47;22.70;99.90
42187;DHT22;27858;51.414;0.018;2023-06-05T18:21:14;22.50;99.90
42187;DHT22;27858;51.414;0.018;2023-06-05T18:23:42;22.30;99.90
42187;DHT22;27858;51.414;0.018;2023-06-05T18:26:09;22.10;99.90
42187;DHT22;27858;51.414;0.018;2023-06-05T18:28:37;21.90;99.90
42187;DHT22;27858;51.414;0.018;2023-06-05T18:31:06;21.80;99.90
42187;DHT22;27858;51.414;0.018;2023-06-05T18:33:34;21.70;99.90
42187;DHT22;27858;51.414;0.018;2023-06-05T18:36:01;21.50;99.90
42187;DHT22;27858;51.414;0.018;2023-06-05T18:38:28;21.20;99.90
42187;DHT22;27858;51.414;0.018;2023-06-05T18:40:55;21.00;99.90
42187;DHT22;27858;51.414;0.018;2023-06-05T18:43:22;21.00;99.90
42187;DHT22;27858;51.414;0.018;2023-06-05T18:45:48;21.10;99.90
42187;DHT22;27858;51.414;0.018;2023-06-05T18:48:15;20.90;99.90
42187;DHT22;27858;51.414;0.018;2023-06-05T18:50:42;20.80;99.90
42187;DHT22;27858;51.414;0.018;2023-06-05T18:53:09;20.60;99.90
42187;DHT22;27858;51.414;0.018;2023-06-05T18:55:38;20.50;99.90
42187;DHT22;27858;51.414;0.018;2023-06-05T18:58:05;20.20;99.90
42187;DHT22;27858;51.414;0.018;2023-06-05T19:00:34;20.20;99.90
42187;DHT22;27858;51.414;0.018;2023-06-05T19:03:01;19.90;99.90
42187;DHT22;27858;51.414;0.018;2023-06-05T19:05:30;19.70;99.90
42187;DHT22;27858;51.414;0.018;2023-06-05T19:07:57;19.60;99.90
42187;DHT22;27858;51.414;0.018;2023-06-05T19:10:27;19.50;99.90
42187;DHT22;27858;51.414;0.018;2023-06-05T19:12:55;19.40;99.90
42187;DHT22;27858;51.414;0.018;2023-06-05T19:15:23;19.30;99.90
42187;DHT22;27858;51.414;0.018;2023-06-05T19:17:49;19.20;99.90
42187;DHT22;27858;51.414;0.018;2023-06-05T19:20:17;18.90;99.90
42187;DHT22;27858;51.414;0.018;2023-06-05T19:22:43;18.80;99.90
42187;DHT22;27858;51.414;0.018;2023-06-05T19:25:10;18.60;99.90
42187;DHT22;27858;51.414;0.018;2023-06-05T19:27:37;18.50;99.90
42187;DHT22;27858;51.414;0.018;2023-06-05T19:30:04;18.40;99.90
42187;DHT22;27858;51.414;0.018;2023-06-05T19:32:31;18.30;99.90
42187;DHT22;27858;51.414;0.018;2023-06-05T19:34:59;18.10;99.90
42187;DHT22;27858;51.414;0.018;2023-06-05T19:37:26;18.10;99.90
42187;DHT22;27858;51.414;0.018;2023-06-05T19:39:53;18.00;99.90
42187;DHT22;27858;51.414;0.018;2023-06-05T19:42:19;17.90;99.90
42187;DHT22;27858;51.414;0.018;2023-06-05T19:44:47;17.70;99.90
42187;DHT22;27858;51.414;0.018;2023-06-05T19:47:13;17.70;99.90
42187;DHT22;27858;51.414;0.018;2023-06-05T19:49:40;17.50;99.90
42187;DHT22;27858;51.414;0.018;2023-06-05T19:52:07;17.50;99.90
42187;DHT22;27858;51.414;0.018;2023-06-05T19:54:34;17.40;99.90
42187;DHT22;27858;51.414;0.018;2023-06-05T19:57:01;17.30;99.90
42187;DHT22;27858;51.414;0.018;2023-06-05T19:59:28;17.30;1.00
42187;DHT22;27858;51.414;0.018;2023-06-05T20:01:55;17.30;1.00
42187;DHT22;27858;51.414;0.018;2023-06-05T20:04:22;17.30;1.00
42187;DHT22;27858;51.414;0.018;2023-06-05T20:06:49;17.20;1.00
42187;DHT22;27858;51.414;0.018;2023-06-05T20:09:16;17.20;1.00
42187;DHT22;27858;51.414;0.018;2023-06-05T20:11:42;17.10;99.90
42187;DHT22;27858;51.414;0.018;2023-06-05T20:14:09;17.00;99.90
42187;DHT22;27858;51.414;0.018;2023-06-05T20:16:36;17.00;99.90